Time;durP1;ratioP1;P1;durP2;ratioP2;P2;SDS_P1;SDS_P2;PMS_P1;PMS_P2;Temp;Humidity;BMP_temperature;BMP_pressure;BME280_temperature;BME280_humidity;BME280_pressure;Samples;Min_cycle;Max_cycle;Signal;HPM_P1;HPM_P2
2021/12/07 00:01:49;;;;;;;13.68;6.18;;;;;;;;;;4990605;28;20038;-68
2021/12/07 00:04:15;;;;;;;13.43;6.82;;;;;;;;;;4992168;28;20034;-68
2021/12/07 00:06:41;;;;;;;10.70;5.63;;;;;;;;;;4975996;28;20636;-68
2021/12/07 00:09:09;;;;;;;12.90;6.25;;;;;;;;;;4973270;28;20033;-68
2021/12/07 00:11:35;;;;;;;11.02;5.88;;;;;;;;;;4983316;28;20077;-68
2021/12/07 00:14:10;;;;;;;11.23;5.68;;;;;;;;;;4973813;28;20475;-71
2021/12/07 00:16:36;;;;;;;10.18;5.65;;;;;;;;;;4987401;28;20468;-68
2021/12/07 00:19:03;;;;;;;9.80;5.38;;;;;;;;;;4992208;28;20478;-67
2021/12/07 00:21:28;;;;;;;11.65;5.78;;;;;;;;;;4990450;28;20030;-68
2021/12/07 00:23:54;;;;;;;10.07;5.38;;;;;;;;;;4991697;28;20387;-68
2021/12/07 00:26:20;;;;;;;9.10;5.18;;;;;;;;;;4991644;28;20042;-69
2021/12/07 00:28:46;;;;;;;8.88;5.07;;;;;;;;;;4990079;28;20044;-69
2021/12/07 00:31:21;;;;;;;9.48;5.00;;;;;;;;;;4974336;28;20369;-68
2021/12/07 00:33:55;;;;;;;9.50;5.18;;;;;;;;;;4986180;28;20042;-68
2021/12/07 00:36:21;;;;;;;10.25;4.80;;;;;;;;;;4990879;28;20384;-66
2021/12/07 00:38:46;;;;;;;8.30;4.68;;;;;;;;;;4990068;28;20041;-68
2021/12/07 00:41:12;;;;;;;8.55;4.55;;;;;;;;;;4990941;28;20384;-67
2021/12/07 00:43:38;;;;;;;9.23;4.88;;;;;;;;;;4972187;28;20068;-73
2021/12/07 00:46:04;;;;;;;8.95;4.53;;;;;;;;;;4975031;28;20054;-68
2021/12/07 00:48:30;;;;;;;7.68;4.25;;;;;;;;;;4986107;28;20451;-69
2021/12/07 00:50:57;;;;;;;7.30;4.38;;;;;;;;;;4990848;28;20038;-68
2021/12/07 00:53:24;;;;;;;8.88;4.07;;;;;;;;;;4978191;28;20038;-74
2021/12/07 00:55:52;;;;;;;7.18;4.07;;;;;;;;;;4989392;28;20034;-69
2021/12/07 00:58:23;;;;;;;6.88;3.88;;;;;;;;;;4991368;28;20037;-68
2021/12/07 01:01:02;;;;;;;7.35;3.78;;;;;;;;;;4986524;28;20057;-68
2021/12/07 01:03:29;;;;;;;5.82;3.25;;;;;;;;;;4984529;28;20073;-73
2021/12/07 01:06:13;;;;;;;6.57;3.58;;;;;;;;;;4991867;28;20034;-69
2021/12/07 01:09:07;;;;;;;6.55;3.83;;;;;;;;;;4989227;28;20080;-68
2021/12/07 01:25:36;;;;;;;8.80;4.25;;;;;;;;;;4915472;29;20119;-69
2021/12/07 01:28:11;;;;;;;8.65;4.57;;;;;;;;;;4952863;28;20126;-68
2021/12/07 01:30:48;;;;;;;7.35;3.95;;;;;;;;;;4989478;28;20034;-71
2021/12/07 01:36:36;;;;;;;8.60;4.78;;;;;;;;;;4993866;28;20085;-69
2021/12/07 01:42:49;;;;;;;9.10;4.68;;;;;;;;;;4994202;28;20042;-69
2021/12/07 01:59:54;;;;;;;12.93;7.38;;;;;;;;;;4977583;28;20117;-68
2021/12/07 02:02:24;;;;;;;11.20;6.30;;;;;;;;;;4983254;28;20482;-67
2021/12/07 02:04:50;;;;;;;14.07;7.20;;;;;;;;;;4993118;28;20106;-67
2021/12/07 02:07:16;;;;;;;13.93;7.30;;;;;;;;;;4995506;28;20432;-67
2021/12/07 02:09:45;;;;;;;10.27;6.07;;;;;;;;;;4993138;28;20034;-68
2021/12/07 02:12:12;;;;;;;13.30;6.18;;;;;;;;;;4987126;28;20046;-67
2021/12/07 02:14:39;;;;;;;11.43;5.90;;;;;;;;;;4977874;28;20121;-67
2021/12/07 02:17:10;;;;;;;14.35;7.47;;;;;;;;;;4983912;28;20042;-67
2021/12/07 02:19:36;;;;;;;;;;;;;;;;;;4993822;28;20030;-68
2021/12/07 02:22:02;;;;;;;9.52;5.15;;;;;;;;;;4994391;28;20008;-67
2021/12/07 02:24:29;;;;;;;14.45;7.38;;;;;;;;;;4993635;28;20504;-70
2021/12/07 02:26:55;;;;;;;17.45;7.20;;;;;;;;;;4986141;28;20050;-67
2021/12/07 02:29:21;;;;;;;17.33;8.45;;;;;;;;;;4982826;28;20038;-68
2021/12/07 02:31:48;;;;;;;20.55;9.63;;;;;;;;;;4975135;28;20504;-67
2021/12/07 02:34:14;;;;;;;17.20;9.63;;;;;;;;;;4993458;28;20327;-67
2021/12/07 02:36:41;;;;;;;18.38;9.88;;;;;;;;;;4975633;28;20113;-67
2021/12/07 02:39:08;;;;;;;20.30;9.90;;;;;;;;;;4981871;28;20034;-67
2021/12/07 02:41:34;;;;;;;21.58;10.23;;;;;;;;;;4991790;28;20085;-74
2021/12/07 02:44:00;;;;;;;21.98;10.23;;;;;;;;;;4976194;28;20137;-67
2021/12/07 02:46:26;;;;;;;20.13;10.30;;;;;;;;;;4979123;28;20034;-68
2021/12/07 02:48:52;;;;;;;19.67;10.32;;;;;;;;;;4974033;28;20048;-71
2021/12/07 02:51:18;;;;;;;22.77;10.93;;;;;;;;;;4974696;28;20121;-67
2021/12/07 02:53:44;;;;;;;24.60;11.38;;;;;;;;;;4990340;28;20038;-68
2021/12/07 02:56:09;;;;;;;24.00;10.75;;;;;;;;;;4976372;28;20417;-68
2021/12/07 02:58:36;;;;;;;19.15;8.98;;;;;;;;;;4990521;28;20480;-68
2021/12/07 03:01:11;;;;;;;22.50;11.15;;;;;;;;;;4992972;28;20472;-67
2021/12/07 03:03:51;;;;;;;20.95;10.95;;;;;;;;;;4993433;28;20034;-67
2021/12/07 03:27:51;;;;;;;32.13;12.48;;;;;;;;;;4992140;28;20069;-67
2021/12/07 03:30:16;;;;;;;31.50;13.80;;;;;;;;;;4990953;28;20493;-70
2021/12/07 03:32:42;;;;;;;32.85;13.40;;;;;;;;;;4991376;28;20062;-67
2021/12/07 03:35:07;;;;;;;33.05;13.82;;;;;;;;;;4982660;28;20026;-67
2021/12/07 03:37:33;;;;;;;34.78;14.48;;;;;;;;;;4982610;28;20044;-73
2021/12/07 03:39:59;;;;;;;37.83;15.07;;;;;;;;;;4990684;28;20038;-66
2021/12/07 03:42:24;;;;;;;33.05;14.85;;;;;;;;;;4989862;28;20085;-66
2021/12/07 03:44:50;;;;;;;23.67;11.40;;;;;;;;;;4991122;28;20034;-66
2021/12/07 03:47:15;;;;;;;37.35;15.30;;;;;;;;;;4993021;28;20473;-67
2021/12/07 03:49:41;;;;;;;33.35;15.18;;;;;;;;;;4991177;28;20031;-66
2021/12/07 03:52:06;;;;;;;38.35;16.27;;;;;;;;;;4973815;28;20049;-67
2021/12/07 03:54:32;;;;;;;35.72;15.25;;;;;;;;;;4992239;28;20039;-66
2021/12/07 03:56:57;;;;;;;32.13;12.40;;;;;;;;;;4992191;28;20128;-66
2021/12/07 03:59:23;;;;;;;33.40;13.35;;;;;;;;;;4991993;28;20026;-66
2021/12/07 04:01:51;;;;;;;42.33;17.40;;;;;;;;;;4988955;28;20062;-67
2021/12/07 04:04:17;;;;;;;43.80;17.00;;;;;;;;;;4989202;28;20077;-66
2021/12/07 04:06:42;;;;;;;38.38;15.95;;;;;;;;;;4972852;28;20388;-66
2021/12/07 04:09:08;;;;;;;45.92;16.83;;;;;;;;;;4990827;28;20030;-66
2021/12/07 04:11:33;;;;;;;44.30;16.52;;;;;;;;;;4992636;28;20043;-65
2021/12/07 04:13:59;;;;;;;44.95;17.23;;;;;;;;;;4989637;28;20494;-66
2021/12/07 04:16:24;;;;;;;38.75;16.23;;;;;;;;;;4991485;28;20042;-66
2021/12/07 04:18:49;;;;;;;38.88;16.23;;;;;;;;;;4976543;28;20046;-66
2021/12/07 04:21:15;;;;;;;43.03;17.48;;;;;;;;;;4991979;28;20073;-66
2021/12/07 04:23:41;;;;;;;44.35;17.65;;;;;;;;;;4967213;28;20030;-66
2021/12/07 04:26:09;;;;;;;41.90;18.27;;;;;;;;;;4986050;28;20034;-66
2021/12/07 04:28:35;;;;;;;47.03;19.45;;;;;;;;;;4992745;28;20108;-65
2021/12/07 04:31:01;;;;;;;45.22;18.67;;;;;;;;;;4977298;28;20043;-66
2021/12/07 04:33:29;;;;;;;52.10;19.75;;;;;;;;;;4984291;28;20037;-66
2021/12/07 04:35:56;;;;;;;51.28;19.25;;;;;;;;;;4990999;28;20109;-66
2021/12/07 04:38:21;;;;;;;52.88;18.98;;;;;;;;;;4992312;28;20161;-66
2021/12/07 04:40:47;;;;;;;43.25;18.70;;;;;;;;;;4972119;28;20501;-66
2021/12/07 04:43:13;;;;;;;44.28;18.38;;;;;;;;;;4986416;28;20130;-67
2021/12/07 04:46:32;;;;;;;40.17;17.13;;;;;;;;;;4984608;28;20502;-72
2021/12/07 04:48:59;;;;;;;44.63;16.40;;;;;;;;;;4976987;28;20091;-66
2021/12/07 04:59:23;;;;;;;31.95;13.45;;;;;;;;;;4992171;28;20049;-65
2021/12/07 05:01:48;;;;;;;32.28;13.20;;;;;;;;;;4990804;28;20030;-65
2021/12/07 05:04:19;;;;;;;33.85;13.50;;;;;;;;;;4992411;28;20104;-66
2021/12/07 05:06:49;;;;;;;26.33;12.70;;;;;;;;;;4991454;28;20042;-66
2021/12/07 05:14:29;;;;;;;34.22;14.52;;;;;;;;;;4991988;28;20045;-66
2021/12/07 05:25:16;;;;;;;36.47;14.57;;;;;;;;;;4981145;28;20137;-66
2021/12/07 05:38:33;;;;;;;29.65;11.73;;;;;;;;;;4991139;28;20049;-65
2021/12/07 05:40:59;;;;;;;31.10;11.95;;;;;;;;;;4990051;28;20034;-66
2021/12/07 05:43:24;;;;;;;39.47;13.95;;;;;;;;;;4991885;28;20164;-65
2021/12/07 05:45:50;;;;;;;32.67;12.45;;;;;;;;;;4990814;28;20023;-65
2021/12/07 05:48:16;;;;;;;37.03;15.80;;;;;;;;;;4991548;28;20125;-65
2021/12/07 05:50:43;;;;;;;40.35;14.57;;;;;;;;;;4991169;28;20046;-72
2021/12/07 05:53:10;;;;;;;44.67;14.20;;;;;;;;;;4989055;28;20045;-65
2021/12/07 05:55:37;;;;;;;45.83;15.65;;;;;;;;;;4988694;28;20053;-67
2021/12/07 05:58:03;;;;;;;45.17;14.80;;;;;;;;;;4987808;28;20109;-63
2021/12/07 06:00:31;;;;;;;35.97;14.40;;;;;;;;;;4973453;28;20376;-62
2021/12/07 06:03:00;;;;;;;44.30;14.93;;;;;;;;;;4992613;28;20030;-62
2021/12/07 06:05:26;;;;;;;36.80;13.80;;;;;;;;;;4994942;28;20042;-62
2021/12/07 06:07:51;;;;;;;42.97;12.95;;;;;;;;;;4994566;28;20030;-63
2021/12/07 06:10:18;;;;;;;33.28;12.00;;;;;;;;;;4993769;28;20036;-66
2021/12/07 06:12:44;;;;;;;36.25;11.48;;;;;;;;;;4996744;28;20039;-69
2021/12/07 06:15:11;;;;;;;29.30;10.50;;;;;;;;;;4992811;28;20053;-65
2021/12/07 06:17:37;;;;;;;30.42;10.52;;;;;;;;;;4994625;28;20058;-66
2021/12/07 06:20:04;;;;;;;29.88;10.77;;;;;;;;;;4993753;28;20114;-67
2021/12/07 06:22:29;;;;;;;23.27;9.30;;;;;;;;;;4994597;28;20061;-67
2021/12/07 06:24:55;;;;;;;35.95;11.77;;;;;;;;;;4993578;28;20062;-68
2021/12/07 06:27:20;;;;;;;23.27;9.93;;;;;;;;;;4994796;28;20069;-67
2021/12/07 06:29:45;;;;;;;23.70;6.95;;;;;;;;;;4991412;28;20396;-74
2021/12/07 06:32:11;;;;;;;27.27;9.85;;;;;;;;;;4992000;28;20113;-66
2021/12/07 06:34:36;;;;;;;19.90;8.15;;;;;;;;;;4998572;28;20046;-66
2021/12/07 06:37:03;;;;;;;28.38;10.10;;;;;;;;;;4993716;28;20935;-66
2021/12/07 06:39:28;;;;;;;30.67;11.35;;;;;;;;;;4994459;28;20088;-66
2021/12/07 06:41:54;;;;;;;29.45;11.15;;;;;;;;;;4993321;28;20030;-68
2021/12/07 06:44:19;;;;;;;32.83;11.57;;;;;;;;;;4976907;28;20405;-66
2021/12/07 06:46:48;;;;;;;30.60;11.23;;;;;;;;;;4993609;28;20031;-71
2021/12/07 06:49:17;;;;;;;39.17;12.70;;;;;;;;;;4994649;28;20113;-66
2021/12/07 06:51:44;;;;;;;28.17;11.60;;;;;;;;;;4994396;28;20388;-69
2021/12/07 06:54:09;;;;;;;34.97;12.38;;;;;;;;;;4994102;28;20027;-69
2021/12/07 06:56:35;;;;;;;32.97;12.48;;;;;;;;;;4994248;28;20046;-68
2021/12/07 06:59:00;;;;;;;43.08;13.02;;;;;;;;;;4993501;28;20034;-67
2021/12/07 07:01:25;;;;;;;26.95;11.45;;;;;;;;;;4993613;28;20035;-69
2021/12/07 07:03:51;;;;;;;32.22;11.32;;;;;;;;;;4993574;28;20034;-71
2021/12/07 07:06:17;;;;;;;30.63;11.50;;;;;;;;;;4993450;28;20036;-67
2021/12/07 07:08:42;;;;;;;32.60;12.98;;;;;;;;;;4976928;28;20113;-68
2021/12/07 07:11:08;;;;;;;33.17;11.50;;;;;;;;;;4992903;28;20357;-68
2021/12/07 07:13:33;;;;;;;30.10;11.45;;;;;;;;;;4993053;28;20043;-69
2021/12/07 07:16:00;;;;;;;32.35;10.88;;;;;;;;;;4992455;28;20038;-69
2021/12/07 07:18:26;;;;;;;30.42;9.02;;;;;;;;;;4993406;28;20109;-70
2021/12/07 07:20:52;;;;;;;26.92;10.48;;;;;;;;;;4990853;28;20121;-68
2021/12/07 07:23:17;;;;;;;33.65;11.38;;;;;;;;;;4976188;28;20431;-69
2021/12/07 07:25:43;;;;;;;25.88;9.50;;;;;;;;;;4993443;28;20030;-68
2021/12/07 07:28:09;;;;;;;33.67;9.50;;;;;;;;;;4991709;28;20121;-69
2021/12/07 07:30:35;;;;;;;19.08;6.32;;;;;;;;;;4976081;28;20038;-70
2021/12/07 07:33:00;;;;;;;30.80;11.10;;;;;;;;;;4992355;28;20041;-70
2021/12/07 07:35:26;;;;;;;26.20;9.85;;;;;;;;;;4993626;28;20038;-70
2021/12/07 07:37:55;;;;;;;28.08;9.57;;;;;;;;;;4992495;28;20030;-70
2021/12/07 07:40:22;;;;;;;32.00;10.98;;;;;;;;;;4993434;28;20037;-69
2021/12/07 07:42:49;;;;;;;38.17;10.52;;;;;;;;;;4992131;28;20044;-72
2021/12/07 07:45:14;;;;;;;34.13;11.88;;;;;;;;;;4992247;28;20030;-69
2021/12/07 07:47:40;;;;;;;27.02;10.07;;;;;;;;;;4992875;28;20373;-68
2021/12/07 07:50:08;;;;;;;28.88;11.00;;;;;;;;;;4992110;28;20182;-68
2021/12/07 07:52:34;;;;;;;38.38;11.82;;;;;;;;;;4991543;28;20387;-67
2021/12/07 07:55:00;;;;;;;31.42;11.25;;;;;;;;;;4991835;28;20040;-67
2021/12/07 07:57:25;;;;;;;36.60;11.02;;;;;;;;;;4973760;28;20357;-67
2021/12/07 07:59:51;;;;;;;28.98;11.00;;;;;;;;;;4991958;28;20038;-68
2021/12/07 08:02:16;;;;;;;39.88;11.93;;;;;;;;;;4992379;28;20038;-69
2021/12/07 08:04:42;;;;;;;30.65;11.98;;;;;;;;;;4993381;28;20038;-70
2021/12/07 08:07:07;;;;;;;35.40;11.20;;;;;;;;;;4974386;28;20038;-69
2021/12/07 08:09:33;;;;;;;38.40;11.65;;;;;;;;;;4992447;28;20026;-70
2021/12/07 08:11:58;;;;;;;30.27;11.98;;;;;;;;;;4991808;28;20050;-70
2021/12/07 08:14:24;;;;;;;29.90;11.48;;;;;;;;;;4992238;28;20125;-69
2021/12/07 08:16:49;;;;;;;30.75;10.63;;;;;;;;;;4993172;28;20037;-70
2021/12/07 08:19:15;;;;;;;38.72;11.88;;;;;;;;;;4991532;28;20407;-70
2021/12/07 08:21:40;;;;;;;35.38;11.55;;;;;;;;;;4992783;28;20113;-67
2021/12/07 08:24:06;;;;;;;38.33;11.90;;;;;;;;;;4990795;28;20115;-70
2021/12/07 08:26:31;;;;;;;34.58;10.70;;;;;;;;;;4990818;28;20388;-67
2021/12/07 08:28:59;;;;;;;33.67;10.75;;;;;;;;;;4991001;28;20030;-68
2021/12/07 08:31:26;;;;;;;31.33;11.02;;;;;;;;;;4988287;28;20034;-68
2021/12/07 08:33:52;;;;;;;26.35;9.93;;;;;;;;;;4994514;28;20032;-69
2021/12/07 08:36:18;;;;;;;30.88;10.00;;;;;;;;;;4973581;28;20030;-67
2021/12/07 08:38:44;;;;;;;27.95;10.05;;;;;;;;;;4988775;28;20030;-69
2021/12/07 08:41:10;;;;;;;30.38;11.05;;;;;;;;;;4974191;28;20349;-68
2021/12/07 08:43:38;;;;;;;38.67;12.32;;;;;;;;;;4987872;28;20038;-70
2021/12/07 08:46:04;;;;;;;29.50;10.70;;;;;;;;;;4990704;28;20089;-70
2021/12/07 08:48:31;;;;;;;35.67;12.05;;;;;;;;;;4991859;28;20547;-70
2021/12/07 08:50:59;;;;;;;42.80;11.77;;;;;;;;;;4991097;28;20065;-70
2021/12/07 08:53:25;;;;;;;28.77;12.32;;;;;;;;;;4991958;28;20049;-70
2021/12/07 09:01:22;;;;;;;34.60;13.60;;;;;;;;;;4989785;28;20500;-70
2021/12/07 09:03:49;;;;;;;31.33;11.93;;;;;;;;;;4973917;28;20034;-70
2021/12/07 09:06:15;;;;;;;37.88;13.68;;;;;;;;;;4991525;28;20038;-69
2021/12/07 09:08:41;;;;;;;34.92;13.35;;;;;;;;;;4974044;28;20031;-68
2021/12/07 09:11:07;;;;;;;34.25;14.27;;;;;;;;;;4990938;28;20097;-70
2021/12/07 09:13:34;;;;;;;30.02;14.13;;;;;;;;;;4991394;28;20380;-70
2021/12/07 09:16:00;;;;;;;38.45;14.30;;;;;;;;;;4991179;28;20400;-69
2021/12/07 09:18:27;;;;;;;40.72;15.00;;;;;;;;;;4974495;28;20041;-69
2021/12/07 09:20:53;;;;;;;41.50;16.85;;;;;;;;;;4990804;28;20083;-75
2021/12/07 09:23:18;;;;;;;44.47;15.88;;;;;;;;;;4992216;28;20097;-70
2021/12/07 09:25:44;;;;;;;40.63;15.80;;;;;;;;;;4991876;28;20424;-71
2021/12/07 09:28:11;;;;;;;34.42;14.82;;;;;;;;;;4973035;28;20034;-70
2021/12/07 09:30:37;;;;;;;25.00;11.02;;;;;;;;;;4990513;28;20042;-72
2021/12/07 09:33:03;;;;;;;30.25;13.10;;;;;;;;;;4991240;28;20022;-72
2021/12/07 09:35:29;;;;;;;32.85;13.95;;;;;;;;;;4991611;28;20447;-71
2021/12/07 09:37:55;;;;;;;31.83;12.15;;;;;;;;;;4991467;28;20502;-72
2021/12/07 09:40:23;;;;;;;35.50;12.80;;;;;;;;;;4995531;28;20026;-71
2021/12/07 09:42:50;;;;;;;34.33;11.93;;;;;;;;;;4977283;28;20459;-71
2021/12/07 09:45:19;;;;;;;29.00;11.77;;;;;;;;;;4994777;28;20033;-73
2021/12/07 09:47:46;;;;;;;31.90;11.82;;;;;;;;;;4995539;28;20234;-71
2021/12/07 09:50:15;;;;;;;23.30;9.27;;;;;;;;;;4994258;28;20187;-71
2021/12/07 09:52:42;;;;;;;24.00;12.30;;;;;;;;;;4977772;28;20057;-71
2021/12/07 09:55:08;;;;;;;26.33;12.23;;;;;;;;;;4977432;28;20487;-70
2021/12/07 09:57:34;;;;;;;24.88;9.32;;;;;;;;;;4995506;28;20030;-70
2021/12/07 09:59:59;;;;;;;24.90;11.38;;;;;;;;;;4995529;28;20081;-72
2021/12/07 10:02:25;;;;;;;27.25;11.23;;;;;;;;;;4995504;28;20030;-70
2021/12/07 10:04:50;;;;;;;31.80;12.38;;;;;;;;;;4978100;28;20030;-74
2021/12/07 10:07:17;;;;;;;30.23;11.35;;;;;;;;;;4993552;28;20499;-72
2021/12/07 10:09:42;;;;;;;16.98;8.68;;;;;;;;;;4992891;28;20026;-69
2021/12/07 10:12:08;;;;;;;25.17;11.23;;;;;;;;;;4993079;28;20411;-69
2021/12/07 10:14:42;;;;;;;16.08;7.38;;;;;;;;;;4994853;28;20377;-69
2021/12/07 10:17:09;;;;;;;33.78;12.60;;;;;;;;;;4993705;28;20387;-69
2021/12/07 10:19:37;;;;;;;28.58;11.88;;;;;;;;;;4983840;28;20066;-69
2021/12/07 10:22:07;;;;;;;20.23;10.98;;;;;;;;;;4988868;28;20022;-69
2021/12/07 10:24:39;;;;;;;25.95;11.13;;;;;;;;;;4994876;28;20030;-68
2021/12/07 10:27:06;;;;;;;23.83;10.90;;;;;;;;;;4993573;28;20468;-70
2021/12/07 10:29:32;;;;;;;24.83;11.27;;;;;;;;;;4994347;28;20062;-69
2021/12/07 10:32:01;;;;;;;25.02;10.77;;;;;;;;;;4993894;28;20039;-70
2021/12/07 10:34:31;;;;;;;22.38;9.65;;;;;;;;;;4994579;28;20077;-69
2021/12/07 10:37:02;;;;;;;29.23;10.38;;;;;;;;;;4994389;28;20399;-68
2021/12/07 10:39:38;;;;;;;22.63;8.50;;;;;;;;;;4993622;28;20388;-68
2021/12/07 10:42:10;;;;;;;23.35;9.07;;;;;;;;;;4994060;28;20058;-69
2021/12/07 10:44:38;;;;;;;21.48;10.60;;;;;;;;;;4977165;28;20066;-69
2021/12/07 10:47:03;;;;;;;19.80;8.60;;;;;;;;;;4993330;28;20037;-69
2021/12/07 10:49:51;;;;;;;27.35;10.88;;;;;;;;;;4993766;28;20034;-68
2021/12/07 10:52:26;;;;;;;17.95;9.43;;;;;;;;;;4993887;28;21629;-67
2021/12/07 10:55:13;;;;;;;18.17;7.13;;;;;;;;;;4993778;28;20035;-72
2021/12/07 10:57:44;;;;;;;22.95;9.52;;;;;;;;;;4994503;28;20038;-68
2021/12/07 11:00:13;;;;;;;20.05;8.60;;;;;;;;;;4975471;28;20026;-69
2021/12/07 11:02:40;;;;;;;16.33;6.97;;;;;;;;;;4990976;28;20049;-69
2021/12/07 11:05:14;;;;;;;23.08;9.15;;;;;;;;;;4992557;28;20022;-69
2021/12/07 11:07:39;;;;;;;20.48;8.50;;;;;;;;;;4993788;28;20113;-70
2021/12/07 11:10:18;;;;;;;20.90;7.25;;;;;;;;;;4992398;28;20146;-67
2021/12/07 11:12:57;;;;;;;19.45;8.05;;;;;;;;;;4976080;28;20038;-68
2021/12/07 11:15:26;;;;;;;17.20;6.68;;;;;;;;;;4993947;28;20104;-68
2021/12/07 11:17:55;;;;;;;17.05;8.02;;;;;;;;;;4993509;28;20045;-71
2021/12/07 11:20:21;;;;;;;21.10;8.32;;;;;;;;;;4993048;28;20359;-72
2021/12/07 11:23:09;;;;;;;19.58;7.40;;;;;;;;;;4992451;28;20046;-66
2021/12/07 11:31:14;;;;;;;19.13;6.72;;;;;;;;;;4992038;28;20053;-68
2021/12/07 11:33:39;;;;;;;18.75;7.35;;;;;;;;;;4999597;28;20033;-68
2021/12/07 11:36:39;;;;;;;18.33;6.55;;;;;;;;;;4992293;28;20034;-65
2021/12/07 11:39:21;;;;;;;19.17;6.20;;;;;;;;;;4959869;28;20388;-66
2021/12/07 11:41:47;;;;;;;;;;;;;;;;;;4993759;28;20040;-65
2021/12/07 11:44:12;;;;;;;20.10;5.55;;;;;;;;;;4992126;28;19910;-67
2021/12/07 11:46:46;;;;;;;13.40;5.07;;;;;;;;;;4991954;28;20030;-68
2021/12/07 11:49:20;;;;;;;18.02;4.97;;;;;;;;;;4992460;28;20041;-68
2021/12/07 11:51:49;;;;;;;12.45;4.20;;;;;;;;;;4993189;28;20026;-65
2021/12/07 11:54:16;;;;;;;14.02;4.93;;;;;;;;;;4974627;28;20492;-66
2021/12/07 11:56:45;;;;;;;17.70;4.70;;;;;;;;;;4992484;28;20468;-67
2021/12/07 11:59:12;;;;;;;14.40;4.80;;;;;;;;;;4991795;28;20091;-67
2021/12/07 12:01:38;;;;;;;15.73;4.43;;;;;;;;;;4974668;28;20022;-67
2021/12/07 12:04:03;;;;;;;14.38;4.35;;;;;;;;;;4992092;28;20030;-65
2021/12/07 12:06:31;;;;;;;20.65;5.03;;;;;;;;;;4993091;28;20093;-64
2021/12/07 12:08:57;;;;;;;10.98;4.30;;;;;;;;;;4991358;28;20432;-64
2021/12/07 12:11:45;;;;;;;13.73;4.50;;;;;;;;;;4992527;28;20125;-64
2021/12/07 12:14:40;;;;;;;14.18;3.97;;;;;;;;;;4991959;28;20125;-65
2021/12/07 12:17:34;;;;;;;14.35;4.28;;;;;;;;;;4974756;28;20042;-67
2021/12/07 12:20:26;;;;;;;19.65;4.35;;;;;;;;;;4951491;28;20432;-68
2021/12/07 12:23:02;;;;;;;10.88;3.45;;;;;;;;;;4992171;28;20077;-68
2021/12/07 12:25:28;;;;;;;17.77;3.80;;;;;;;;;;4992777;28;20472;-66
2021/12/07 12:27:56;;;;;;;12.20;4.25;;;;;;;;;;4991583;28;20033;-71
2021/12/07 12:30:28;;;;;;;18.80;4.65;;;;;;;;;;4992277;28;20113;-66
2021/12/07 12:33:02;;;;;;;18.38;4.30;;;;;;;;;;4991833;28;20479;-72
2021/12/07 12:35:58;;;;;;;11.25;3.85;;;;;;;;;;4992499;28;20117;-65
2021/12/07 12:38:29;;;;;;;13.80;3.80;;;;;;;;;;4989452;28;20133;-66
2021/12/07 12:41:10;;;;;;;17.60;4.18;;;;;;;;;;4974336;28;20033;-66
2021/12/07 12:43:53;;;;;;;13.43;4.50;;;;;;;;;;4992150;28;20069;-65
2021/12/07 12:46:22;;;;;;;10.82;3.28;;;;;;;;;;4992787;28;20039;-65
2021/12/07 12:48:51;;;;;;;13.15;4.00;;;;;;;;;;4991942;28;20104;-65
2021/12/07 12:51:18;;;;;;;14.18;3.95;;;;;;;;;;4990792;28;20035;-64
2021/12/07 12:53:45;;;;;;;14.20;3.72;;;;;;;;;;4991374;28;20034;-64
2021/12/07 12:56:23;;;;;;;16.13;4.45;;;;;;;;;;4973977;28;20085;-64
2021/12/07 12:58:54;;;;;;;11.18;3.50;;;;;;;;;;4992313;28;20030;-64
2021/12/07 13:01:28;;;;;;;;;;;;;;;;;;4992516;28;20468;-65
2021/12/07 13:04:00;;;;;;;12.10;3.70;;;;;;;;;;4991385;28;19956;-68
2021/12/07 13:06:31;;;;;;;9.25;3.25;;;;;;;;;;4991988;28;20491;-64
2021/12/07 13:09:05;;;;;;;12.77;3.53;;;;;;;;;;4991449;28;20031;-65
2021/12/07 13:11:39;;;;;;;13.75;3.30;;;;;;;;;;4991615;28;20062;-65
2021/12/07 13:14:28;;;;;;;12.40;3.65;;;;;;;;;;4995139;28;20088;-65
2021/12/07 13:17:32;;;;;;;11.18;3.47;;;;;;;;;;4995564;28;20035;-70
2021/12/07 13:20:44;;;;;;;18.20;6.47;;;;;;;;;;4993229;28;20042;-66
2021/12/07 13:23:12;;;;;;;14.15;5.13;;;;;;;;;;4973261;28;20077;-66
2021/12/07 13:25:50;;;;;;;13.23;3.63;;;;;;;;;;4995598;28;20053;-66
2021/12/07 13:28:28;;;;;;;16.30;4.15;;;;;;;;;;4977090;28;20042;-65
2021/12/07 13:31:04;;;;;;;12.02;3.83;;;;;;;;;;4975615;28;20384;-69
2021/12/07 13:33:38;;;;;;;14.43;3.60;;;;;;;;;;4995380;28;20044;-64
2021/12/07 13:36:28;;;;;;;11.90;3.72;;;;;;;;;;4994624;28;20026;-65
2021/12/07 13:38:54;;;;;;;11.63;3.80;;;;;;;;;;4994627;28;20030;-68
2021/12/07 13:41:20;;;;;;;12.32;3.60;;;;;;;;;;4977534;28;20411;-65
2021/12/07 13:43:49;;;;;;;13.75;3.40;;;;;;;;;;4995446;28;20049;-63
2021/12/07 13:46:26;;;;;;;13.50;3.70;;;;;;;;;;4993631;28;20108;-64
2021/12/07 13:49:14;;;;;;;14.55;3.55;;;;;;;;;;4994880;28;20117;-68
2021/12/07 13:51:40;;;;;;;15.60;4.10;;;;;;;;;;4993995;28;20096;-64
2021/12/07 13:54:13;;;;;;;15.05;3.90;;;;;;;;;;4994294;28;20125;-65
2021/12/07 13:56:39;;;;;;;11.35;4.10;;;;;;;;;;4995303;28;20034;-67
2021/12/07 13:59:09;;;;;;;11.88;3.88;;;;;;;;;;4994424;28;20045;-66
2021/12/07 14:01:38;;;;;;;11.35;4.32;;;;;;;;;;4975754;28;20073;-66
2021/12/07 14:04:05;;;;;;;14.95;4.78;;;;;;;;;;4975952;28;20065;-64
2021/12/07 14:06:31;;;;;;;13.73;4.93;;;;;;;;;;4995602;28;20125;-63
2021/12/07 14:09:10;;;;;;;13.90;4.93;;;;;;;;;;4994508;28;20145;-64
2021/12/07 14:11:38;;;;;;;12.00;4.40;;;;;;;;;;4995196;28;20082;-63
2021/12/07 14:14:11;;;;;;;12.93;4.50;;;;;;;;;;4976588;28;20476;-64
2021/12/07 14:16:37;;;;;;;14.38;4.82;;;;;;;;;;4977600;28;20543;-63
2021/12/07 14:19:03;;;;;;;13.50;4.50;;;;;;;;;;4993084;28;20030;-64
2021/12/07 14:21:29;;;;;;;17.45;4.88;;;;;;;;;;4994238;28;20369;-64
2021/12/07 14:24:04;;;;;;;17.05;4.38;;;;;;;;;;4993798;28;20034;-65
2021/12/07 14:26:31;;;;;;;13.90;4.38;;;;;;;;;;4986861;28;20549;-64
2021/12/07 14:29:03;;;;;;;15.38;4.30;;;;;;;;;;4974989;28;20372;-65
2021/12/07 14:31:44;;;;;;;12.88;5.18;;;;;;;;;;4965131;28;20034;-64
2021/12/07 14:34:11;;;;;;;12.10;4.10;;;;;;;;;;4984691;28;20049;-64
2021/12/07 14:36:52;;;;;;;11.80;4.35;;;;;;;;;;4980203;28;20053;-64
2021/12/07 14:39:21;;;;;;;13.32;4.43;;;;;;;;;;4993972;28;20030;-63
2021/12/07 14:41:51;;;;;;;12.90;4.05;;;;;;;;;;4975663;28;20078;-63
2021/12/07 14:44:20;;;;;;;10.83;3.73;;;;;;;;;;4992451;28;20045;-67
2021/12/07 14:46:47;;;;;;;11.27;3.75;;;;;;;;;;4995831;28;20283;-66
2021/12/07 14:49:14;;;;;;;9.95;3.50;;;;;;;;;;4976060;28;20034;-65
2021/12/07 14:51:41;;;;;;;8.50;3.38;;;;;;;;;;4993919;28;20046;-64
2021/12/07 14:54:07;;;;;;;10.27;3.20;;;;;;;;;;4993289;28;20057;-64
2021/12/07 14:56:35;;;;;;;9.43;2.78;;;;;;;;;;4994350;28;20030;-64
2021/12/07 14:59:06;;;;;;;11.00;2.80;;;;;;;;;;4992206;28;20027;-66
2021/12/07 15:01:35;;;;;;;9.15;2.85;;;;;;;;;;4975427;28;20444;-65
2021/12/07 15:04:04;;;;;;;14.27;3.05;;;;;;;;;;4992530;28;20052;-65
2021/12/07 15:06:33;;;;;;;7.20;2.58;;;;;;;;;;4993661;28;20034;-65
2021/12/07 15:09:01;;;;;;;8.00;2.50;;;;;;;;;;4975653;28;20369;-64
2021/12/07 15:11:26;;;;;;;5.97;2.40;;;;;;;;;;4993674;28;20108;-64
2021/12/07 15:13:52;;;;;;;10.23;2.78;;;;;;;;;;4957662;28;20034;-67
2021/12/07 15:16:17;;;;;;;7.75;2.35;;;;;;;;;;4992550;28;20472;-64
2021/12/07 15:18:46;;;;;;;8.60;2.53;;;;;;;;;;4993308;28;20049;-64
2021/12/07 15:21:20;;;;;;;6.90;2.47;;;;;;;;;;4992265;28;20281;-64
2021/12/07 15:23:52;;;;;;;6.32;2.47;;;;;;;;;;4993774;28;20034;-65
2021/12/07 15:26:20;;;;;;;6.47;2.35;;;;;;;;;;4991269;28;20030;-65
2021/12/07 15:29:00;;;;;;;8.73;2.60;;;;;;;;;;4979207;28;20065;-65
2021/12/07 15:31:28;;;;;;;7.85;2.80;;;;;;;;;;4988997;28;20495;-66
2021/12/07 15:33:54;;;;;;;8.48;3.00;;;;;;;;;;4973370;28;20034;-68
2021/12/07 15:36:23;;;;;;;13.95;2.92;;;;;;;;;;4991838;28;20026;-65
2021/12/07 15:39:03;;;;;;;10.93;3.05;;;;;;;;;;4992604;28;20361;-65
2021/12/07 15:41:29;;;;;;;9.27;3.00;;;;;;;;;;4977404;28;20031;-65
2021/12/07 15:43:57;;;;;;;7.90;3.22;;;;;;;;;;4988122;28;20030;-69
2021/12/07 15:46:23;;;;;;;8.75;2.97;;;;;;;;;;4986163;28;20096;-63
2021/12/07 15:48:48;;;;;;;8.55;2.38;;;;;;;;;;4988728;28;20437;-63
2021/12/07 15:51:13;;;;;;;8.95;2.45;;;;;;;;;;4973953;28;20475;-64
2021/12/07 15:53:40;;;;;;;10.25;2.60;;;;;;;;;;4992905;28;20357;-64
2021/12/07 15:56:26;;;;;;;9.88;2.70;;;;;;;;;;4992118;28;20052;-64
2021/12/07 15:58:52;;;;;;;7.45;2.78;;;;;;;;;;4993030;28;20042;-69
2021/12/07 16:01:17;;;;;;;6.57;2.50;;;;;;;;;;4992126;28;20038;-65
2021/12/07 16:03:46;;;;;;;9.10;2.78;;;;;;;;;;4993327;28;20384;-65
2021/12/07 16:06:18;;;;;;;7.03;2.50;;;;;;;;;;4991702;28;20113;-65
2021/12/07 16:08:46;;;;;;;8.95;3.00;;;;;;;;;;4992508;28;20473;-68
2021/12/07 16:11:14;;;;;;;7.05;2.55;;;;;;;;;;4991920;28;20678;-66
2021/12/07 16:13:50;;;;;;;9.00;2.80;;;;;;;;;;4992583;28;20065;-65
2021/12/07 16:16:25;;;;;;;7.60;2.70;;;;;;;;;;4974806;28;20104;-65
2021/12/07 16:18:52;;;;;;;6.43;2.22;;;;;;;;;;4992171;28;20101;-66
2021/12/07 16:21:18;;;;;;;4.68;2.17;;;;;;;;;;4991328;28;20121;-66